Current Weather

Lytton

Lytton, Canada (CWLY)

Report from: Sunday, January 29, 2023 8:00 AM PST
Current time: Sunday, January 29, 2023 8:42 AM PST

Nearby weather
Weather history
Weather forecast

Temperature-8.0°C (17.6°F)
Wind chill-15.4°C (4.3°F)
Dew point-19.0°C (-2.2°F)
Winds 11 kts (5.7 m/s, 12.7 mph) North (10°)
Wind gusts 21 kts (10.8 m/s, 24.2 mph)
Visibility9 mi. (14.5 km)
Clouds Sky clear
Altimeter30.70 in.Hg (1040 mB)
Relative humidity41 %
Density altitude-3,732 ft. (-1,138 m)
Sea-level pressure104.1 kPa (1041 mB, 30.75 in.Hg)
Remarks Fully automated report
Flight conditions Visual Meteorological Conditions
Raw dataCWLY 291600Z AUTO 01011G21KT 9SM CLR M08/M19 A3070 RMK SLP414
An error has occurred. This application may no longer respond until reloaded. Reload 🗙